createdAt,value
2018-07-12T00:00:50.867Z,26.40
2018-07-12T00:03:17.221Z,26.40
2018-07-12T00:05:43.547Z,26.40
2018-07-12T00:10:36.656Z,26.20
2018-07-12T00:13:02.996Z,26.20
2018-07-12T00:15:29.313Z,26.20
2018-07-12T00:17:55.634Z,26.20
2018-07-12T00:20:21.982Z,26.00
2018-07-12T00:22:48.342Z,26.00
2018-07-12T00:25:14.688Z,25.90
2018-07-12T00:27:41.016Z,25.90
2018-07-12T00:30:07.346Z,25.80
2018-07-12T00:32:33.661Z,25.90
2018-07-12T00:34:59.975Z,25.80
2018-07-12T00:37:26.297Z,25.80
2018-07-12T00:39:52.620Z,25.70
2018-07-12T00:42:20.281Z,25.70
2018-07-12T00:44:46.622Z,25.70
2018-07-12T00:47:12.983Z,25.60
2018-07-12T00:49:39.307Z,25.60
2018-07-12T00:52:05.636Z,25.50
2018-07-12T00:54:31.976Z,25.60
2018-07-12T00:56:58.305Z,25.50
2018-07-12T00:59:24.643Z,25.00
2018-07-12T01:01:50.971Z,25.40
2018-07-12T01:04:17.311Z,25.20
2018-07-12T01:06:43.639Z,25.00
2018-07-12T01:09:09.955Z,24.80
2018-07-12T01:11:36.277Z,24.60
2018-07-12T01:14:02.554Z,24.50
2018-07-12T01:16:28.865Z,24.40
2018-07-12T01:18:55.198Z,24.40
2018-07-12T01:21:21.567Z,24.50
2018-07-12T01:23:47.888Z,24.10
2018-07-12T01:26:14.195Z,24.50
2018-07-12T01:31:07.306Z,24.50
2018-07-12T01:33:33.627Z,24.40
2018-07-12T01:35:59.983Z,24.40
2018-07-12T01:38:26.355Z,24.50
2018-07-12T01:40:52.690Z,24.60
2018-07-12T01:43:19.017Z,22.10
2018-07-12T01:45:45.434Z,24.40
2018-07-12T01:48:12.071Z,24.30
2018-07-12T01:50:38.423Z,24.20
2018-07-12T01:53:04.750Z,24.10
2018-07-12T01:55:31.069Z,24.00
2018-07-12T01:57:57.423Z,24.00
2018-07-12T02:00:23.822Z,23.90
2018-07-12T02:02:50.206Z,23.60
2018-07-12T02:05:16.522Z,23.60
2018-07-12T02:07:42.841Z,23.70
2018-07-12T02:10:09.172Z,23.00
2018-07-12T02:12:35.504Z,23.50
2018-07-12T02:15:01.810Z,23.40
2018-07-12T02:17:28.107Z,23.50
2018-07-12T02:19:54.434Z,23.60
2018-07-12T02:22:20.753Z,23.80
2018-07-12T02:24:47.091Z,24.10
2018-07-12T02:27:13.625Z,24.10
2018-07-12T02:32:06.870Z,24.20
2018-07-12T02:34:33.239Z,24.30
2018-07-12T02:36:59.588Z,24.40
2018-07-12T02:39:25.961Z,24.40
2018-07-12T02:41:52.312Z,24.50
2018-07-12T02:44:18.655Z,24.60
2018-07-12T02:46:45.009Z,24.60
2018-07-12T02:49:11.342Z,24.50
2018-07-12T02:51:37.677Z,24.60
2018-07-12T02:54:03.979Z,24.80
2018-07-12T02:56:30.336Z,24.40
2018-07-12T02:58:56.633Z,24.70
2018-07-12T03:01:22.961Z,24.60
2018-07-12T03:03:49.289Z,24.50
2018-07-12T03:08:42.414Z,24.40
2018-07-12T03:11:08.778Z,24.30
2018-07-12T03:13:35.077Z,24.20
2018-07-12T03:16:01.402Z,24.30
2018-07-12T03:18:27.850Z,24.40
2018-07-12T03:20:54.172Z,24.50
2018-07-12T03:23:20.526Z,24.40
2018-07-12T03:25:46.825Z,24.30
2018-07-12T03:28:13.150Z,24.30
2018-07-12T03:30:39.516Z,24.30
2018-07-12T03:33:05.839Z,26.10
2018-07-12T03:35:32.200Z,24.20
2018-07-12T03:37:58.514Z,24.30
2018-07-12T03:40:24.846Z,24.50
2018-07-12T03:42:51.193Z,24.30
2018-07-12T03:45:17.523Z,24.20
2018-07-12T03:52:37.695Z,24.20
2018-07-12T03:55:04.068Z,24.20
2018-07-12T03:57:30.415Z,24.20
2018-07-12T03:59:56.735Z,24.30
2018-07-12T04:02:23.044Z,24.30
2018-07-12T04:04:49.381Z,24.40
2018-07-12T04:07:15.713Z,24.40
2018-07-12T04:09:42.039Z,24.40
2018-07-12T04:12:08.373Z,24.60
2018-07-12T04:14:34.680Z,26.80
2018-07-12T04:17:01.031Z,24.50
2018-07-12T04:19:27.377Z,24.50
2018-07-12T04:21:53.678Z,24.60
2018-07-12T04:24:20.016Z,24.50
2018-07-12T04:26:46.319Z,24.40
2018-07-12T04:29:12.692Z,24.50
2018-07-12T04:31:39.002Z,24.50
2018-07-12T04:34:05.640Z,24.50
2018-07-12T04:36:32.062Z,24.40
2018-07-12T04:38:58.484Z,24.60
2018-07-12T04:41:24.781Z,24.40
2018-07-12T04:43:51.094Z,24.60
2018-07-12T04:46:17.448Z,24.80
2018-07-12T04:48:43.740Z,24.40
2018-07-12T04:51:10.104Z,24.90
2018-07-12T04:53:36.397Z,24.90
2018-07-12T04:56:02.717Z,22.40
2018-07-12T04:58:29.140Z,25.10
2018-07-12T05:00:55.418Z,25.10
2018-07-12T05:03:21.734Z,25.20
2018-07-12T05:05:48.043Z,25.10
2018-07-12T05:08:14.406Z,24.80
2018-07-12T05:10:40.646Z,25.20
2018-07-12T05:13:06.958Z,25.40
2018-07-12T05:15:33.278Z,25.40
2018-07-12T05:20:26.395Z,25.80
2018-07-12T05:22:52.724Z,26.10
2018-07-12T05:25:19.043Z,26.10
2018-07-12T05:27:45.341Z,26.10
2018-07-12T05:30:11.659Z,26.10
2018-07-12T05:32:37.965Z,26.10
2018-07-12T05:35:04.598Z,26.30
2018-07-12T05:37:32.235Z,26.30
2018-07-12T05:39:59.876Z,26.50
2018-07-12T05:42:27.597Z,26.50
2018-07-12T05:44:55.275Z,26.50
2018-07-12T05:47:22.964Z,26.60
2018-07-12T05:49:50.647Z,26.90
2018-07-12T05:52:18.388Z,26.90
2018-07-12T05:54:46.070Z,27.20
2018-07-12T05:59:41.506Z,27.30
2018-07-12T06:02:17.843Z,27.40
2018-07-12T06:04:45.692Z,27.60
2018-07-12T06:07:13.448Z,27.80
2018-07-12T06:09:41.215Z,27.80
2018-07-12T06:12:08.911Z,27.80
2018-07-12T06:14:36.607Z,27.80
2018-07-12T06:17:04.351Z,27.80
2018-07-12T06:19:32.067Z,27.80
2018-07-12T06:22:00.058Z,28.10
2018-07-12T06:24:27.734Z,28.20
2018-07-12T06:26:55.457Z,28.30
2018-07-12T06:29:23.178Z,28.50
2018-07-12T06:31:50.910Z,31.00
2018-07-12T06:34:18.605Z,28.70
2018-07-12T06:36:46.529Z,28.80
2018-07-12T06:41:42.094Z,28.90
2018-07-12T06:44:09.786Z,29.10
2018-07-12T06:46:38.328Z,29.00
2018-07-12T06:49:06.562Z,28.80
2018-07-12T06:51:34.357Z,28.70
2018-07-12T06:56:29.934Z,28.60
2018-07-12T06:58:57.601Z,28.80
2018-07-12T07:01:25.333Z,28.90
2018-07-12T07:03:53.050Z,28.90
2018-07-12T07:06:20.779Z,28.80
2018-07-12T07:08:48.475Z,28.70
2018-07-12T07:11:16.187Z,28.70
2018-07-12T07:13:43.892Z,28.80
2018-07-12T07:16:11.578Z,28.90
2018-07-12T07:18:40.127Z,28.80
2018-07-12T07:21:07.923Z,30.40
2018-07-12T07:23:35.661Z,30.40
2018-07-12T07:26:03.401Z,28.90
2018-07-12T07:28:31.714Z,29.10
2018-07-12T07:30:59.403Z,29.50
2018-07-12T07:33:27.123Z,29.40
2018-07-12T07:35:54.806Z,29.50
2018-07-12T07:38:22.503Z,29.60
2018-07-12T07:40:50.230Z,29.60
2018-07-12T07:43:17.995Z,29.70
2018-07-12T07:45:45.827Z,30.10
2018-07-12T07:48:13.557Z,30.60
2018-07-12T07:50:41.263Z,31.10
2018-07-12T07:53:09.201Z,31.30
2018-07-12T07:55:36.935Z,31.50
2018-07-12T07:58:04.662Z,31.30
2018-07-12T08:00:32.421Z,30.90
2018-07-12T08:05:27.925Z,30.80
2018-07-12T08:07:55.688Z,30.90
2018-07-12T08:10:23.509Z,31.00
2018-07-12T08:12:51.252Z,31.10
2018-07-12T08:15:18.987Z,31.20
2018-07-12T08:17:46.725Z,30.90
2018-07-12T08:20:14.615Z,30.90
2018-07-12T08:22:42.350Z,30.80
2018-07-12T08:25:10.112Z,30.80
2018-07-12T08:27:53.989Z,30.90
2018-07-12T08:30:21.727Z,31.00
2018-07-12T08:32:50.349Z,31.10
2018-07-12T08:35:18.133Z,31.20
2018-07-12T08:37:46.398Z,31.30
2018-07-12T08:40:14.170Z,31.40
2018-07-12T08:42:42.184Z,31.40
2018-07-12T08:45:09.940Z,31.60
2018-07-12T08:47:37.811Z,31.70
2018-07-12T08:50:05.614Z,31.90
2018-07-12T08:52:33.326Z,32.20
2018-07-12T08:55:01.071Z,32.70
2018-07-12T08:57:28.893Z,33.00
2018-07-12T08:59:56.791Z,33.20
2018-07-12T09:02:24.624Z,33.40
2018-07-12T09:04:52.497Z,33.60
2018-07-12T09:07:20.222Z,33.80
2018-07-12T09:09:47.984Z,33.90
2018-07-12T09:12:15.763Z,34.00
2018-07-12T09:14:43.774Z,34.10
2018-07-12T09:17:11.575Z,34.10
2018-07-12T09:19:39.359Z,34.20
2018-07-12T09:22:07.384Z,34.50
2018-07-12T09:24:35.186Z,34.70
2018-07-12T09:29:30.781Z,35.00
2018-07-12T09:31:58.899Z,35.30
2018-07-12T09:34:26.731Z,35.50
2018-07-12T09:36:54.618Z,35.60
2018-07-12T09:39:22.735Z,35.90
2018-07-12T09:41:50.735Z,36.10
2018-07-12T09:44:18.580Z,36.20
2018-07-12T09:46:46.369Z,36.30
2018-07-12T09:49:14.321Z,36.40
2018-07-12T09:51:42.119Z,36.50
2018-07-12T09:54:09.925Z,36.60
2018-07-12T09:59:16.869Z,36.90
2018-07-12T10:01:50.242Z,37.20
2018-07-12T10:04:18.028Z,37.30
2018-07-12T10:06:55.485Z,37.30
2018-07-12T10:09:28.994Z,37.50
2018-07-12T10:12:02.698Z,37.70
2018-07-12T10:14:36.241Z,37.80
2018-07-12T10:17:09.774Z,38.00
2018-07-12T10:19:37.682Z,38.10
2018-07-12T10:22:08.296Z,38.90
2018-07-12T10:27:03.912Z,38.30
2018-07-12T10:29:31.646Z,38.70
2018-07-12T10:31:59.392Z,38.80
2018-07-12T10:34:27.129Z,38.90
2018-07-12T10:36:54.848Z,39.10
2018-07-12T10:39:22.666Z,39.20
2018-07-12T10:41:50.543Z,39.30
2018-07-12T10:46:47.102Z,39.70
2018-07-12T10:49:14.908Z,40.00
2018-07-12T10:51:42.717Z,40.10
2018-07-12T10:54:10.539Z,40.40
2018-07-12T10:56:38.362Z,40.40
2018-07-12T10:59:06.077Z,40.50
2018-07-12T11:01:33.843Z,40.60
2018-07-12T11:04:02.155Z,40.60
2018-07-12T11:06:29.960Z,40.90
2018-07-12T11:08:57.719Z,41.00
2018-07-12T11:11:25.602Z,41.20
2018-07-12T11:13:53.677Z,41.40
2018-07-12T11:16:21.457Z,41.60
2018-07-12T11:18:49.377Z,41.30
2018-07-12T11:21:17.161Z,41.60
2018-07-12T11:23:44.914Z,41.00
2018-07-12T11:26:13.037Z,41.30
2018-07-12T11:28:41.218Z,41.10
2018-07-12T11:31:09.356Z,40.80
2018-07-12T11:33:39.386Z,40.90
2018-07-12T11:36:07.491Z,40.40
2018-07-12T11:38:37.293Z,40.60
2018-07-12T11:41:05.599Z,40.30
2018-07-12T11:43:33.442Z,40.50
2018-07-12T11:46:02.998Z,40.90
2018-07-12T11:48:31.449Z,41.20
2018-07-12T11:50:59.176Z,41.40
2018-07-12T11:53:27.597Z,41.60
2018-07-12T11:55:56.957Z,42.00
2018-07-12T11:58:25.078Z,41.60
2018-07-12T12:00:54.125Z,41.60
2018-07-12T12:03:21.883Z,41.80
2018-07-12T12:05:49.685Z,42.10
2018-07-12T12:08:17.470Z,41.70
2018-07-12T12:10:45.367Z,41.70
2018-07-12T12:13:13.329Z,41.50
2018-07-12T12:15:41.082Z,41.10
2018-07-12T12:18:08.771Z,41.20
2018-07-12T12:20:36.952Z,41.50
2018-07-12T12:23:04.929Z,41.70
2018-07-12T12:25:33.280Z,41.70
2018-07-12T12:28:02.279Z,41.90
2018-07-12T12:30:30.116Z,41.80
2018-07-12T12:32:57.933Z,42.20
2018-07-12T12:35:25.690Z,42.00
2018-07-12T12:37:54.444Z,41.90
2018-07-12T12:40:23.329Z,41.60
2018-07-12T12:42:51.488Z,41.90
2018-07-12T12:45:19.258Z,41.70
2018-07-12T12:47:48.015Z,41.70
2018-07-12T12:50:15.831Z,41.90
2018-07-12T12:52:43.749Z,42.00
2018-07-12T12:55:12.202Z,42.30
2018-07-12T13:00:07.851Z,42.20
2018-07-12T13:02:35.495Z,42.30
2018-07-12T13:07:31.906Z,42.40
2018-07-12T13:09:59.919Z,42.30
2018-07-12T13:12:28.057Z,41.90
2018-07-12T13:14:56.065Z,42.20
2018-07-12T13:17:23.952Z,42.00
2018-07-12T13:19:51.854Z,41.90
2018-07-12T13:22:19.527Z,41.90
2018-07-12T13:24:47.307Z,41.30
2018-07-12T13:27:14.998Z,41.70
2018-07-12T13:29:42.699Z,41.70
2018-07-12T13:32:10.398Z,41.50
2018-07-12T13:34:38.268Z,41.60
2018-07-12T13:37:06.074Z,42.00
2018-07-12T13:39:33.821Z,42.00
2018-07-12T13:42:01.621Z,42.30
2018-07-12T13:44:29.372Z,42.30
2018-07-12T13:46:57.182Z,41.40
2018-07-12T13:49:24.913Z,42.00
2018-07-12T13:51:53.025Z,42.30
2018-07-12T13:54:20.831Z,42.60
2018-07-12T13:56:49.243Z,42.30
2018-07-12T13:59:17.771Z,42.70
2018-07-12T14:01:45.514Z,42.80
2018-07-12T14:04:13.206Z,42.90
2018-07-12T14:06:40.951Z,42.80
2018-07-12T14:09:12.091Z,42.80
2018-07-12T14:11:39.817Z,42.90
2018-07-12T14:14:08.038Z,45.00
2018-07-12T14:16:35.872Z,42.70
2018-07-12T14:19:03.733Z,42.80
2018-07-12T14:21:31.637Z,42.90
2018-07-12T14:23:59.387Z,43.10
2018-07-12T14:26:27.119Z,43.40
2018-07-12T14:28:54.843Z,43.40
2018-07-12T14:31:22.760Z,43.50
2018-07-12T14:33:50.507Z,43.40
2018-07-12T14:36:18.266Z,43.40
2018-07-12T14:38:45.978Z,43.70
2018-07-12T14:41:13.891Z,43.40
2018-07-12T14:43:41.738Z,43.20
2018-07-12T14:46:09.740Z,43.30
2018-07-12T14:48:37.695Z,43.30
2018-07-12T14:51:05.504Z,43.40
2018-07-12T14:53:33.349Z,43.50
2018-07-12T14:56:01.139Z,43.70
2018-07-12T14:58:28.896Z,43.60
2018-07-12T15:00:56.609Z,43.30
2018-07-12T15:03:24.298Z,43.50
2018-07-12T15:05:52.034Z,43.60
2018-07-12T15:10:47.810Z,43.50
2018-07-12T15:13:15.598Z,43.40
2018-07-12T15:15:43.374Z,42.80
2018-07-12T15:18:11.102Z,42.70
2018-07-12T15:20:39.003Z,42.80
2018-07-12T15:23:06.726Z,43.00
2018-07-12T15:25:34.514Z,43.00
2018-07-12T15:28:02.362Z,43.00
2018-07-12T15:30:30.146Z,43.20
2018-07-12T15:32:58.441Z,43.30
2018-07-12T15:35:26.475Z,43.10
2018-07-12T15:42:50.775Z,43.00
2018-07-12T15:45:18.804Z,43.20
2018-07-12T15:47:46.666Z,43.40
2018-07-12T15:50:19.301Z,43.30
2018-07-12T15:52:47.132Z,43.30
2018-07-12T15:55:14.914Z,43.30
2018-07-12T15:57:42.684Z,43.20
2018-07-12T16:00:10.751Z,43.20
2018-07-12T16:02:45.978Z,43.10
2018-07-12T16:05:13.748Z,43.00
2018-07-12T16:07:41.586Z,43.00
2018-07-12T16:10:09.498Z,43.10
2018-07-12T16:12:37.265Z,43.00
2018-07-12T16:15:05.611Z,43.00
2018-07-12T16:17:33.493Z,42.90
2018-07-12T16:20:01.247Z,42.90
2018-07-12T16:22:29.121Z,42.80
2018-07-12T16:24:57.163Z,42.80
2018-07-12T16:27:24.957Z,42.70
2018-07-12T16:32:20.591Z,42.70
2018-07-12T16:34:48.338Z,42.70
2018-07-12T16:37:16.226Z,42.60
2018-07-12T16:39:43.974Z,42.40
2018-07-12T16:42:12.119Z,42.60
2018-07-12T16:44:39.890Z,42.30
2018-07-12T16:47:08.061Z,42.20
2018-07-12T16:49:36.396Z,42.00
2018-07-12T16:52:04.215Z,42.00
2018-07-12T16:54:32.469Z,42.10
2018-07-12T16:57:00.411Z,41.70
2018-07-12T16:59:29.437Z,41.70
2018-07-12T17:01:57.618Z,41.50
2018-07-12T17:04:25.447Z,41.80
2018-07-12T17:06:53.287Z,41.50
2018-07-12T17:09:21.189Z,41.60
2018-07-12T17:14:16.872Z,41.20
2018-07-12T17:16:45.439Z,41.40
2018-07-12T17:19:13.166Z,41.00
2018-07-12T17:21:40.892Z,41.00
2018-07-12T17:24:08.625Z,40.80
2018-07-12T17:26:36.358Z,40.40
2018-07-12T17:31:31.930Z,40.40
2018-07-12T17:33:59.801Z,40.20
2018-07-12T17:36:27.869Z,40.20
2018-07-12T17:38:55.923Z,40.30
2018-07-12T17:41:23.887Z,40.20
2018-07-12T17:43:51.887Z,40.10
2018-07-12T17:46:19.668Z,39.90
2018-07-12T17:48:49.259Z,40.10
2018-07-12T17:51:16.989Z,40.10
2018-07-12T17:53:44.779Z,40.00
2018-07-12T17:56:12.566Z,39.90
2018-07-12T17:58:40.422Z,40.00
2018-07-12T18:01:08.259Z,39.80
2018-07-12T18:03:36.199Z,39.50
2018-07-12T18:06:05.233Z,39.40
2018-07-12T18:08:33.023Z,39.20
2018-07-12T18:11:00.753Z,38.80
2018-07-12T18:13:28.567Z,38.50
2018-07-12T18:15:56.376Z,38.40
2018-07-12T18:18:24.240Z,38.20
2018-07-12T18:20:53.171Z,38.20
2018-07-12T18:23:21.191Z,38.10
2018-07-12T18:25:49.774Z,38.10
2018-07-12T18:28:17.906Z,38.00
2018-07-12T18:30:45.621Z,37.70
2018-07-12T18:33:13.316Z,37.60
2018-07-12T18:35:41.328Z,37.60
2018-07-12T18:38:09.090Z,39.00
2018-07-12T18:40:37.278Z,39.70
2018-07-12T18:43:05.176Z,36.90
2018-07-12T18:45:32.903Z,36.70
2018-07-12T18:48:00.648Z,36.60
2018-07-12T18:50:28.394Z,36.30
2018-07-12T18:52:56.703Z,36.20
2018-07-12T18:55:24.412Z,36.10
2018-07-12T18:57:52.189Z,36.00
2018-07-12T19:00:19.899Z,35.80
2018-07-12T19:02:47.678Z,35.70
2018-07-12T19:05:15.475Z,35.50
2018-07-12T19:07:43.231Z,35.30
2018-07-12T19:10:10.954Z,35.20
2018-07-12T19:12:38.715Z,35.10
2018-07-12T19:15:06.500Z,34.80
2018-07-12T19:17:34.422Z,34.60
2018-07-12T19:20:02.420Z,34.40
2018-07-12T19:22:30.602Z,34.30
2018-07-12T19:24:59.002Z,34.00
2018-07-12T19:27:26.737Z,33.80
2018-07-12T19:29:54.587Z,33.30
2018-07-12T19:32:22.580Z,33.40
2018-07-12T19:34:50.424Z,35.60
2018-07-12T19:37:18.708Z,33.10
2018-07-12T19:41:16.041Z,33.00
2018-07-12T19:43:43.741Z,32.70
2018-07-12T19:46:11.603Z,32.10
2018-07-12T19:48:39.637Z,32.00
2018-07-12T19:51:07.509Z,31.90
2018-07-12T19:53:35.190Z,34.30
2018-07-12T19:56:02.949Z,31.70
2018-07-12T19:58:39.806Z,31.30
2018-07-12T20:01:14.571Z,31.30
2018-07-12T20:03:48.865Z,31.90
2018-07-12T20:06:17.453Z,31.00
2018-07-12T20:08:47.723Z,31.00
2018-07-12T20:11:15.865Z,31.00
2018-07-12T20:13:44.145Z,32.50
2018-07-12T20:16:12.117Z,30.60
2018-07-12T20:18:39.873Z,30.60
2018-07-12T20:21:07.611Z,30.40
2018-07-12T20:23:35.341Z,30.20
2018-07-12T20:26:03.107Z,30.00
2018-07-12T20:28:30.798Z,29.80
2018-07-12T20:30:58.593Z,29.80
2018-07-12T20:33:26.251Z,29.70
2018-07-12T20:35:54.015Z,29.70
2018-07-12T20:38:21.773Z,29.50
2018-07-12T20:40:49.517Z,29.60
2018-07-12T20:43:19.097Z,29.60
2018-07-12T20:45:47.270Z,29.50
2018-07-12T20:48:15.310Z,29.40
2018-07-12T20:50:43.065Z,29.30
2018-07-12T20:53:10.788Z,29.10
2018-07-12T20:55:40.232Z,28.90
2018-07-12T20:58:07.984Z,28.70
2018-07-12T21:00:35.688Z,28.60
2018-07-12T21:03:03.607Z,28.40
2018-07-12T21:05:31.323Z,28.50
2018-07-12T21:07:59.089Z,28.20
2018-07-12T21:10:26.788Z,28.10
2018-07-12T21:12:54.510Z,28.20
2018-07-12T21:15:22.329Z,28.20
2018-07-12T21:17:50.972Z,28.20
2018-07-12T21:20:19.546Z,28.00
2018-07-12T21:22:47.312Z,27.90
2018-07-12T21:25:15.369Z,27.80
2018-07-12T21:27:43.061Z,27.70
2018-07-12T21:30:12.654Z,27.60
2018-07-12T21:32:40.390Z,27.50
2018-07-12T21:35:08.355Z,27.60
2018-07-12T21:37:36.147Z,27.70
2018-07-12T21:40:03.930Z,27.50
2018-07-12T21:42:31.804Z,27.40
2018-07-12T21:45:00.669Z,27.30
2018-07-12T21:47:28.921Z,27.30
2018-07-12T21:52:25.021Z,27.10
2018-07-12T21:54:53.588Z,29.00
2018-07-12T21:57:21.389Z,27.00
2018-07-12T21:59:49.203Z,26.90
2018-07-12T22:02:17.044Z,26.70
2018-07-12T22:04:44.792Z,26.70
2018-07-12T22:10:53.898Z,26.60
2018-07-12T22:13:22.203Z,26.40
2018-07-12T22:15:50.019Z,26.20
2018-07-12T22:18:17.795Z,26.20
2018-07-12T22:20:45.523Z,26.30
2018-07-12T22:23:13.264Z,26.20
2018-07-12T22:25:41.032Z,26.10
2018-07-12T22:28:08.801Z,26.00
2018-07-12T22:30:36.593Z,25.80
2018-07-12T22:33:04.661Z,25.70
2018-07-12T22:35:32.439Z,25.60
2018-07-12T22:38:01.061Z,25.50
2018-07-12T22:40:29.322Z,25.60
2018-07-12T22:42:57.400Z,25.50
2018-07-12T22:45:25.687Z,25.50
2018-07-12T22:47:53.636Z,25.40
2018-07-12T22:50:21.547Z,25.40
2018-07-12T22:52:49.421Z,25.40
2018-07-12T22:55:17.231Z,25.40
2018-07-12T22:57:44.969Z,25.40
2018-07-12T23:00:12.731Z,25.40
2018-07-12T23:02:40.406Z,25.30
2018-07-12T23:05:08.403Z,25.30
2018-07-12T23:07:36.184Z,25.30
2018-07-12T23:10:04.471Z,25.30
2018-07-12T23:12:32.187Z,25.30
2018-07-12T23:14:59.926Z,25.30
2018-07-12T23:19:55.491Z,25.00
2018-07-12T23:22:23.237Z,25.00
2018-07-12T23:24:50.996Z,25.00
2018-07-12T23:27:18.742Z,25.00
2018-07-12T23:29:46.649Z,24.90
2018-07-12T23:32:14.346Z,24.90
2018-07-12T23:34:42.048Z,24.90
2018-07-12T23:37:09.763Z,24.90
2018-07-12T23:39:37.465Z,24.80
2018-07-12T23:42:05.190Z,24.10
2018-07-12T23:44:32.911Z,24.80
2018-07-12T23:47:00.623Z,24.50
2018-07-12T23:49:28.374Z,24.60
2018-07-12T23:51:56.066Z,24.60
2018-07-12T23:54:23.785Z,24.20
2018-07-12T23:56:51.649Z,24.60
2018-07-12T23:59:19.380Z,24.50
